createdAt,value
2018-06-08T00:01:44.324Z,5.93
2018-06-08T00:04:17.906Z,5.23
2018-06-08T00:06:46.840Z,5.53
2018-06-08T00:09:15.588Z,5.80
2018-06-08T00:11:44.084Z,6.13
2018-06-08T00:14:14.914Z,6.13
2018-06-08T00:16:43.879Z,4.97
2018-06-08T00:19:12.810Z,7.40
2018-06-08T00:21:41.907Z,6.93
2018-06-08T00:24:10.727Z,5.83
2018-06-08T00:26:39.635Z,5.43
2018-06-08T00:29:08.443Z,7.03
2018-06-08T00:31:37.020Z,6.23
2018-06-08T00:34:05.503Z,7.37
2018-06-08T00:36:34.574Z,6.10
2018-06-08T00:39:03.279Z,7.67
2018-06-08T00:41:32.918Z,7.57
2018-06-08T00:44:01.523Z,9.67
2018-06-08T00:46:30.662Z,9.67
2018-06-08T00:48:59.301Z,8.90
2018-06-08T00:51:28.126Z,6.80
2018-06-08T00:53:56.651Z,9.47
2018-06-08T00:56:30.832Z,9.07
2018-06-08T00:58:59.383Z,16.43
2018-06-08T01:01:27.941Z,13.67
2018-06-08T01:03:56.764Z,16.77
2018-06-08T01:06:25.195Z,16.43
2018-06-08T01:08:53.894Z,16.60
2018-06-08T01:11:22.980Z,17.13
2018-06-08T01:13:51.567Z,15.60
2018-06-08T01:16:19.993Z,14.13
2018-06-08T01:18:49.652Z,14.30
2018-06-08T01:21:18.444Z,18.20
2018-06-08T01:23:46.996Z,18.63
2018-06-08T01:26:15.509Z,20.10
2018-06-08T01:28:44.094Z,18.70
2018-06-08T01:31:13.320Z,17.77
2018-06-08T01:33:41.886Z,15.53
2018-06-08T01:36:10.663Z,17.70
2018-06-08T01:38:39.571Z,16.17
2018-06-08T01:41:08.146Z,16.40
2018-06-08T01:43:37.148Z,18.77
2018-06-08T01:46:06.226Z,15.70
2018-06-08T01:48:34.746Z,17.07
2018-06-08T01:51:03.407Z,17.33
2018-06-08T01:53:31.978Z,16.60
2018-06-08T01:56:00.779Z,16.50
2018-06-08T01:58:29.391Z,17.70
2018-06-08T02:00:58.824Z,16.67
2018-06-08T02:03:28.173Z,18.13
2018-06-08T02:05:57.159Z,17.47
2018-06-08T02:08:25.747Z,15.97
2018-06-08T02:10:54.279Z,18.43
2018-06-08T02:13:22.944Z,19.63
2018-06-08T02:15:51.945Z,20.53
2018-06-08T02:18:20.517Z,14.83
2018-06-08T02:20:49.099Z,16.77
2018-06-08T02:23:17.663Z,13.03
2018-06-08T02:25:46.165Z,14.30
2018-06-08T02:28:14.647Z,12.30
2018-06-08T02:30:44.367Z,13.77
2018-06-08T02:33:13.114Z,12.17
2018-06-08T02:35:42.642Z,13.60
2018-06-08T02:38:11.323Z,13.90
2018-06-08T02:40:40.038Z,11.50
2018-06-08T02:43:08.517Z,12.67
2018-06-08T02:45:37.168Z,13.03
2018-06-08T02:48:06.215Z,16.47
2018-06-08T02:50:35.278Z,13.80
2018-06-08T02:53:04.176Z,12.33
2018-06-08T02:55:32.695Z,14.00
2018-06-08T02:58:01.677Z,15.80
2018-06-08T03:00:30.637Z,13.70
2018-06-08T03:02:59.091Z,14.20
2018-06-08T03:05:28.455Z,13.53
2018-06-08T03:07:57.189Z,16.47
2018-06-08T03:10:25.887Z,16.00
2018-06-08T03:12:54.621Z,16.40
2018-06-08T03:15:23.776Z,16.43
2018-06-08T03:17:55.956Z,15.80
2018-06-08T03:20:25.104Z,18.33
2018-06-08T03:22:53.601Z,19.73
2018-06-08T03:25:22.760Z,21.40
2018-06-08T03:27:51.216Z,21.33
2018-06-08T03:30:19.940Z,20.13
2018-06-08T03:32:48.580Z,17.77
2018-06-08T03:35:17.631Z,19.67
2018-06-08T03:37:46.107Z,17.33
2018-06-08T03:40:14.797Z,19.63
2018-06-08T03:42:43.785Z,18.03
2018-06-08T03:45:12.296Z,16.60
2018-06-08T03:47:40.799Z,15.83
2018-06-08T03:50:10.322Z,17.80
2018-06-08T03:52:38.956Z,17.70
2018-06-08T03:55:07.628Z,16.97
2018-06-08T03:57:36.578Z,17.03
2018-06-08T04:00:06.142Z,15.33
2018-06-08T04:02:35.751Z,14.60
2018-06-08T04:05:04.417Z,13.50
2018-06-08T04:07:32.837Z,14.20
2018-06-08T04:10:01.762Z,15.60
2018-06-08T04:12:30.334Z,12.40
2018-06-08T04:14:58.749Z,14.77
2018-06-08T04:17:27.364Z,14.50
2018-06-08T04:19:56.001Z,13.90
2018-06-08T04:22:32.574Z,15.90
2018-06-08T04:25:01.285Z,15.90
2018-06-08T04:27:30.143Z,14.03
2018-06-08T04:29:59.091Z,14.73
2018-06-08T04:32:28.014Z,12.60
2018-06-08T04:34:57.301Z,11.67
2018-06-08T04:37:25.937Z,11.37
2018-06-08T04:39:54.565Z,12.80
2018-06-08T04:42:23.423Z,13.47
2018-06-08T04:44:51.873Z,12.90
2018-06-08T04:47:20.678Z,13.90
2018-06-08T04:49:49.653Z,13.93
2018-06-08T04:52:18.600Z,11.60
2018-06-08T04:54:47.088Z,12.43
2018-06-08T04:57:16.150Z,12.77
2018-06-08T04:59:44.712Z,11.30
2018-06-08T05:02:13.742Z,11.67
2018-06-08T05:04:42.922Z,10.10
2018-06-08T05:07:11.799Z,11.27
2018-06-08T05:09:40.748Z,12.90
2018-06-08T05:12:10.397Z,12.60
2018-06-08T05:14:39.565Z,10.93
2018-06-08T05:17:08.117Z,12.70
2018-06-08T05:19:36.638Z,13.50
2018-06-08T05:22:07.010Z,12.80
2018-06-08T05:24:35.785Z,11.87
2018-06-08T05:27:05.357Z,10.87
2018-06-08T05:29:34.131Z,11.53
2018-06-08T05:32:02.668Z,12.13
2018-06-08T05:34:31.197Z,12.80
2018-06-08T05:36:59.752Z,15.40
2018-06-08T05:39:28.265Z,14.47
2018-06-08T05:41:56.745Z,14.43
2018-06-08T05:44:25.213Z,11.70
2018-06-08T05:46:54.264Z,13.67
2018-06-08T05:49:22.815Z,13.27
2018-06-08T05:51:51.459Z,14.80
2018-06-08T05:54:19.938Z,11.93
2018-06-08T05:56:48.406Z,11.87
2018-06-08T05:59:16.911Z,12.00
2018-06-08T06:01:45.840Z,11.90
2018-06-08T06:04:29.069Z,11.00
2018-06-08T06:06:58.552Z,13.83
2018-06-08T06:09:33.898Z,12.70
2018-06-08T06:12:09.105Z,13.90
2018-06-08T06:14:37.514Z,13.33
2018-06-08T06:17:06.425Z,13.20
2018-06-08T06:19:34.991Z,10.93
2018-06-08T06:22:03.551Z,9.77
2018-06-08T06:24:32.002Z,13.60
2018-06-08T06:27:00.572Z,12.50
2018-06-08T06:29:49.959Z,13.17
2018-06-08T06:32:19.176Z,15.27
2018-06-08T06:34:47.522Z,11.50
2018-06-08T06:37:16.339Z,12.80
2018-06-08T06:39:44.675Z,13.40
2018-06-08T06:42:13.055Z,15.43
2018-06-08T06:44:41.451Z,13.53
2018-06-08T06:47:09.785Z,13.00
2018-06-08T06:49:38.179Z,11.47
2018-06-08T06:52:06.509Z,10.37
2018-06-08T06:54:34.902Z,10.83
2018-06-08T06:57:03.315Z,14.27
2018-06-08T06:59:31.685Z,14.90
2018-06-08T07:02:00.106Z,14.37
2018-06-08T07:04:28.561Z,12.03
2018-06-08T07:06:57.019Z,13.47
2018-06-08T07:09:25.399Z,12.17
2018-06-08T07:11:53.774Z,12.53
2018-06-08T07:14:22.240Z,10.93
2018-06-08T07:16:50.717Z,11.60
2018-06-08T07:19:19.190Z,13.57
2018-06-08T07:21:48.525Z,13.73
2018-06-08T07:24:17.307Z,14.33
2018-06-08T07:26:45.874Z,14.17
2018-06-08T07:29:14.355Z,13.53
2018-06-08T07:31:42.897Z,14.27
2018-06-08T07:34:11.738Z,12.70
2018-06-08T07:36:40.087Z,12.20
2018-06-08T07:39:08.842Z,12.20
2018-06-08T07:41:37.357Z,12.37
2018-06-08T07:44:05.856Z,12.40
2018-06-08T07:46:34.254Z,11.57
2018-06-08T07:49:02.628Z,10.13
2018-06-08T07:51:31.482Z,13.07
2018-06-08T07:53:59.952Z,12.13
2018-06-08T07:56:28.308Z,12.77
2018-06-08T07:58:56.687Z,13.23
2018-06-08T08:01:25.050Z,11.30
2018-06-08T08:03:53.436Z,10.80
2018-06-08T08:06:21.810Z,11.33
2018-06-08T08:08:50.150Z,20.00
2018-06-08T08:11:18.725Z,13.73
2018-06-08T08:13:47.090Z,15.50
2018-06-08T08:16:15.439Z,14.13
2018-06-08T08:18:43.796Z,16.00
2018-06-08T08:21:12.240Z,14.43
2018-06-08T08:23:40.646Z,16.97
2018-06-08T08:26:09.041Z,15.10
2018-06-08T08:28:37.420Z,14.83
2018-06-08T08:31:05.798Z,13.10
2018-06-08T08:33:34.163Z,14.10
2018-06-08T08:36:02.549Z,12.10
2018-06-08T08:38:30.961Z,11.23
2018-06-08T08:40:59.343Z,12.60
2018-06-08T08:43:27.716Z,11.20
2018-06-08T08:45:56.095Z,13.83
2018-06-08T08:48:24.437Z,13.17
2018-06-08T08:50:53.583Z,10.17
2018-06-08T08:53:21.982Z,12.07
2018-06-08T08:55:50.407Z,12.50
2018-06-08T08:58:18.886Z,12.80
2018-06-08T09:00:47.329Z,11.53
2018-06-08T09:03:15.723Z,11.67
2018-06-08T09:05:44.243Z,12.53
2018-06-08T09:08:12.583Z,12.30
2018-06-08T09:10:40.986Z,12.50
2018-06-08T09:13:09.339Z,12.70
2018-06-08T09:15:37.752Z,11.33
2018-06-08T09:18:06.124Z,11.50
2018-06-08T09:20:34.529Z,11.83
2018-06-08T09:23:02.971Z,11.77
2018-06-08T09:25:31.341Z,11.17
2018-06-08T09:27:59.684Z,10.10
2018-06-08T09:30:28.083Z,12.40
2018-06-08T09:32:56.439Z,11.00
2018-06-08T09:35:24.966Z,10.00
2018-06-08T09:37:53.329Z,9.60
2018-06-08T09:40:21.699Z,10.03
2018-06-08T09:42:49.999Z,9.83
2018-06-08T09:45:18.331Z,8.50
2018-06-08T09:47:46.640Z,9.77
2018-06-08T09:50:14.944Z,9.63
2018-06-08T09:52:43.304Z,9.90
2018-06-08T09:55:11.716Z,8.93
2018-06-08T09:57:40.032Z,9.93
2018-06-08T10:00:08.353Z,10.93
2018-06-08T10:02:36.769Z,8.83
2018-06-08T10:05:05.175Z,9.40
2018-06-08T10:07:33.519Z,10.20
2018-06-08T10:10:01.829Z,9.70
2018-06-08T10:12:30.241Z,9.43
2018-06-08T10:14:58.594Z,10.93
2018-06-08T10:17:27.098Z,10.07
2018-06-08T10:19:55.579Z,9.60
2018-06-08T10:22:23.951Z,8.77
2018-06-08T10:24:52.288Z,8.20
2018-06-08T10:27:20.723Z,8.00
2018-06-08T10:29:49.099Z,9.13
2018-06-08T10:32:17.501Z,8.37
2018-06-08T10:34:45.841Z,8.07
2018-06-08T10:37:14.247Z,8.30
2018-06-08T10:39:42.589Z,8.33
2018-06-08T10:42:11.020Z,8.43
2018-06-08T10:44:39.363Z,8.27
2018-06-08T10:47:07.708Z,8.50
2018-06-08T10:49:36.181Z,8.07
2018-06-08T10:52:04.567Z,7.77
2018-06-08T10:54:32.906Z,7.80
2018-06-08T10:57:01.249Z,7.00
2018-06-08T10:59:29.651Z,6.87
2018-06-08T11:01:58.045Z,7.83
2018-06-08T11:04:26.375Z,6.30
2018-06-08T11:06:55.166Z,7.27
2018-06-08T11:09:23.551Z,8.00
2018-06-08T11:11:51.997Z,6.70
2018-06-08T11:14:20.376Z,5.90
2018-06-08T11:16:48.763Z,6.37
2018-06-08T11:19:17.141Z,7.37
2018-06-08T11:21:45.479Z,7.30
2018-06-08T11:24:16.974Z,6.47
2018-06-08T11:26:45.620Z,7.37
2018-06-08T11:29:14.353Z,5.90
2018-06-08T11:31:42.733Z,7.20
2018-06-08T11:34:11.172Z,7.40
2018-06-08T11:36:43.455Z,8.67
2018-06-08T11:39:11.851Z,8.43
2018-06-08T11:41:40.376Z,8.80
2018-06-08T11:44:08.738Z,8.87
2018-06-08T11:46:37.153Z,8.47
2018-06-08T11:49:05.809Z,7.40
2018-06-08T11:51:34.170Z,8.23
2018-06-08T11:54:02.981Z,8.17
2018-06-08T11:56:31.295Z,7.47
2018-06-08T11:58:59.864Z,7.57
2018-06-08T12:02:52.631Z,7.70
2018-06-08T12:05:20.976Z,9.30
2018-06-08T12:07:49.366Z,8.30
2018-06-08T12:10:17.753Z,7.80
2018-06-08T12:12:46.176Z,8.00
2018-06-08T12:15:14.584Z,9.30
2018-06-08T12:17:43.267Z,10.37
2018-06-08T12:20:11.989Z,9.30
2018-06-08T12:22:40.378Z,10.37
2018-06-08T12:25:08.707Z,8.40
2018-06-08T12:27:37.706Z,9.30
2018-06-08T12:30:06.065Z,9.60
2018-06-08T12:32:34.444Z,10.03
2018-06-08T12:35:02.834Z,9.80
2018-06-08T12:37:31.217Z,10.20
2018-06-08T12:39:59.617Z,9.17
2018-06-08T12:42:27.994Z,9.90
2018-06-08T12:44:56.366Z,8.63
2018-06-08T12:47:24.755Z,9.37
2018-06-08T12:49:53.109Z,7.73
2018-06-08T12:52:21.474Z,8.90
2018-06-08T12:54:49.888Z,8.97
2018-06-08T12:57:18.263Z,7.77
2018-06-08T12:59:46.735Z,8.67
2018-06-08T13:02:15.198Z,8.80
2018-06-08T13:04:43.559Z,9.00
2018-06-08T13:07:11.958Z,9.33
2018-06-08T13:09:40.415Z,8.90
2018-06-08T13:12:08.847Z,8.33
2018-06-08T13:14:37.254Z,9.20
2018-06-08T13:17:05.680Z,8.17
2018-06-08T13:19:34.075Z,9.57
2018-06-08T13:22:02.429Z,7.87
2018-06-08T13:24:30.928Z,8.63
2018-06-08T13:26:59.307Z,8.43
2018-06-08T13:29:27.709Z,8.77
2018-06-08T13:31:56.153Z,9.90
2018-06-08T13:34:24.582Z,8.80
2018-06-08T13:36:52.991Z,8.40
2018-06-08T13:39:21.379Z,8.80
2018-06-08T13:41:49.780Z,8.73
2018-06-08T13:44:18.277Z,9.67
2018-06-08T13:46:47.328Z,9.67
2018-06-08T13:49:15.710Z,8.50
2018-06-08T13:51:44.094Z,8.23
2018-06-08T13:54:12.551Z,8.70
2018-06-08T13:56:40.880Z,8.27
2018-06-08T13:59:09.232Z,8.93
2018-06-08T14:01:37.680Z,8.03
2018-06-08T14:04:06.037Z,9.20
2018-06-08T14:06:34.425Z,8.60
2018-06-08T14:09:02.917Z,8.20
2018-06-08T14:11:31.304Z,8.83
2018-06-08T14:13:59.710Z,9.70
2018-06-08T14:16:28.097Z,9.30
2018-06-08T14:18:56.513Z,8.13
2018-06-08T14:21:24.948Z,7.83
2018-06-08T14:23:53.286Z,7.10
2018-06-08T14:26:21.829Z,8.10
2018-06-08T14:28:50.223Z,7.70
2018-06-08T14:31:18.642Z,7.57
2018-06-08T14:33:47.077Z,6.20
2018-06-08T14:36:15.434Z,4.70
2018-06-08T14:38:43.861Z,4.97
2018-06-08T14:41:12.290Z,5.80
2018-06-08T14:43:40.671Z,5.20
2018-06-08T14:46:09.067Z,5.50
2018-06-08T14:48:37.371Z,4.63
2018-06-08T14:51:05.750Z,4.80
2018-06-08T14:53:34.124Z,4.70
2018-06-08T14:56:02.461Z,5.90
2018-06-08T14:58:30.881Z,5.27
2018-06-08T15:01:00.260Z,6.10
2018-06-08T15:03:28.710Z,4.90
2018-06-08T15:05:57.302Z,6.00
2018-06-08T15:08:25.659Z,6.07
2018-06-08T15:10:54.079Z,6.57
2018-06-08T15:13:22.486Z,6.53
2018-06-08T15:15:50.923Z,5.80
2018-06-08T15:18:19.439Z,6.50
2018-06-08T15:20:47.733Z,7.30
2018-06-08T15:23:16.735Z,7.43
2018-06-08T15:25:45.116Z,7.30
2018-06-08T15:28:13.434Z,8.03
2018-06-08T15:30:41.748Z,7.07
2018-06-08T15:33:10.086Z,7.30
2018-06-08T15:35:38.536Z,7.60
2018-06-08T15:38:06.862Z,8.90
2018-06-08T15:40:35.262Z,7.50
2018-06-08T15:43:03.608Z,8.27
2018-06-08T15:45:31.940Z,7.70
2018-06-08T15:48:00.313Z,7.90
2018-06-08T15:50:28.795Z,7.27
2018-06-08T15:52:57.130Z,8.80
2018-06-08T15:55:25.506Z,8.20
2018-06-08T15:57:53.914Z,8.63
2018-06-08T16:00:22.277Z,9.17
2018-06-08T16:02:50.789Z,9.97
2018-06-08T16:05:19.124Z,9.80
2018-06-08T16:07:47.559Z,10.97
2018-06-08T16:10:15.943Z,10.90
2018-06-08T16:12:44.516Z,13.83
2018-06-08T16:15:12.902Z,11.90
2018-06-08T16:17:41.284Z,12.67
2018-06-08T16:20:09.583Z,11.63
2018-06-08T16:22:37.990Z,12.17
2018-06-08T16:25:06.250Z,11.83
2018-06-08T16:27:34.661Z,11.40
2018-06-08T16:30:03.044Z,11.03
2018-06-08T16:32:31.347Z,11.13
2018-06-08T16:34:59.784Z,11.37
2018-06-08T16:37:28.131Z,11.17
2018-06-08T16:39:56.394Z,11.43
2018-06-08T16:42:24.719Z,13.03
2018-06-08T16:44:53.053Z,12.40
2018-06-08T16:47:21.455Z,12.00
2018-06-08T16:49:49.803Z,10.90
2018-06-08T16:52:18.178Z,11.90
2018-06-08T16:54:46.583Z,12.33
2018-06-08T16:57:14.962Z,13.00
2018-06-08T16:59:43.349Z,10.07
2018-06-08T17:02:11.688Z,8.90
2018-06-08T17:04:39.976Z,8.90
2018-06-08T17:07:08.296Z,8.60
2018-06-08T17:09:36.628Z,8.60
2018-06-08T17:12:04.934Z,9.80
2018-06-08T17:14:33.220Z,10.77
2018-06-08T17:17:07.655Z,9.17
2018-06-08T17:19:35.982Z,8.80
2018-06-08T17:22:04.656Z,9.40
2018-06-08T17:24:32.937Z,10.07
2018-06-08T17:27:01.255Z,11.10
2018-06-08T17:29:33.276Z,10.23
2018-06-08T17:32:02.678Z,10.53
2018-06-08T17:34:31.178Z,10.00
2018-06-08T17:37:00.164Z,10.30
2018-06-08T17:39:28.522Z,10.47
2018-06-08T17:41:56.819Z,11.10
2018-06-08T17:44:25.444Z,10.90
2018-06-08T17:46:54.067Z,9.53
2018-06-08T17:49:22.783Z,10.30
2018-06-08T17:51:51.288Z,10.47
2018-06-08T17:54:19.734Z,10.47
2018-06-08T17:56:48.116Z,12.83
2018-06-08T17:59:17.043Z,11.90
2018-06-08T18:01:45.476Z,11.70
2018-06-08T18:04:13.969Z,12.73
2018-06-08T18:06:42.385Z,13.10
2018-06-08T18:09:10.794Z,12.60
2018-06-08T18:11:39.331Z,14.17
2018-06-08T18:14:07.718Z,13.97
2018-06-08T18:16:36.081Z,12.80
2018-06-08T18:19:04.538Z,13.50
2018-06-08T18:21:32.900Z,12.53
2018-06-08T18:24:03.208Z,13.27
2018-06-08T18:26:31.715Z,12.83
2018-06-08T18:29:00.245Z,13.73
2018-06-08T18:31:28.583Z,12.87
2018-06-08T18:33:56.922Z,12.23
2018-06-08T18:36:25.281Z,12.50
2018-06-08T18:38:53.816Z,12.70
2018-06-08T18:41:22.174Z,12.10
2018-06-08T18:43:50.592Z,13.40
2018-06-08T18:46:19.196Z,12.67
2018-06-08T18:48:47.542Z,12.90
2018-06-08T18:51:16.068Z,13.17
2018-06-08T18:53:44.470Z,12.37
2018-06-08T18:56:12.923Z,11.87
2018-06-08T18:58:41.362Z,14.73
2018-06-08T19:01:10.631Z,12.77
2018-06-08T19:03:38.953Z,15.10
2018-06-08T19:06:07.401Z,14.37
2018-06-08T19:08:35.898Z,12.60
2018-06-08T19:11:04.309Z,15.50
2018-06-08T19:13:32.841Z,18.43
2018-06-08T19:16:01.559Z,17.07
2018-06-08T19:18:29.933Z,15.30
2018-06-08T19:20:58.288Z,18.57
2018-06-08T19:23:26.671Z,15.70
2018-06-08T19:25:55.036Z,15.67
2018-06-08T19:28:33.062Z,15.27
2018-06-08T19:31:01.587Z,14.57
2018-06-08T19:33:30.327Z,11.30
2018-06-08T19:35:58.704Z,15.17
2018-06-08T19:38:27.351Z,12.90
2018-06-08T19:40:56.411Z,11.93
2018-06-08T19:43:24.850Z,12.87
2018-06-08T19:45:53.340Z,13.67
2018-06-08T19:48:21.763Z,12.40
2018-06-08T19:50:50.107Z,12.73
2018-06-08T19:53:18.474Z,12.40
2018-06-08T19:55:46.792Z,13.23
2018-06-08T19:58:15.182Z,14.90
2018-06-08T20:00:43.566Z,13.40
2018-06-08T20:03:11.950Z,11.70
2018-06-08T20:05:40.279Z,11.27
2018-06-08T20:08:08.628Z,11.00
2018-06-08T20:10:37.015Z,13.10
2018-06-08T20:13:05.365Z,11.10
2018-06-08T20:15:33.762Z,13.70
2018-06-08T20:18:02.080Z,13.30
2018-06-08T20:20:30.596Z,13.53
2018-06-08T20:22:58.907Z,13.13
2018-06-08T20:25:27.221Z,13.10
2018-06-08T20:27:55.523Z,12.47
2018-06-08T20:30:23.874Z,13.53
2018-06-08T20:32:52.176Z,13.07
2018-06-08T20:35:20.529Z,12.13
2018-06-08T20:37:48.862Z,12.50
2018-06-08T20:40:17.395Z,13.70
2018-06-08T20:42:46.359Z,12.43
2018-06-08T20:45:15.540Z,12.40
2018-06-08T20:47:44.419Z,12.30
2018-06-08T20:50:15.662Z,11.60
2018-06-08T20:52:45.427Z,11.10
2018-06-08T20:55:13.848Z,10.47
2018-06-08T20:57:47.861Z,11.20
2018-06-08T21:00:16.243Z,14.53
2018-06-08T21:02:44.636Z,11.70
2018-06-08T21:05:12.999Z,11.70
2018-06-08T21:07:41.394Z,11.53
2018-06-08T21:10:09.728Z,11.30
2018-06-08T21:12:38.105Z,9.10
2018-06-08T21:15:06.436Z,13.83
2018-06-08T21:17:34.797Z,10.83
2018-06-08T21:20:03.216Z,10.80
2018-06-08T21:22:31.580Z,9.40
2018-06-08T21:25:00.057Z,10.23
2018-06-08T21:27:28.432Z,13.87
2018-06-08T21:29:56.817Z,10.27
2018-06-08T21:32:25.300Z,9.50
2018-06-08T21:34:53.617Z,9.97
2018-06-08T21:37:21.919Z,10.80
2018-06-08T21:39:50.361Z,10.90
2018-06-08T21:42:21.173Z,10.33
2018-06-08T21:47:33.402Z,10.23
2018-06-08T21:50:01.829Z,12.20
2018-06-08T21:52:31.241Z,10.13
2018-06-08T21:54:59.627Z,10.07
2018-06-08T21:57:28.016Z,9.40
2018-06-08T21:59:56.445Z,8.77
2018-06-08T22:02:24.795Z,12.00
2018-06-08T22:04:58.735Z,10.50
2018-06-08T22:07:27.157Z,10.53
2018-06-08T22:09:55.503Z,11.27
2018-06-08T22:12:23.843Z,10.63
2018-06-08T22:14:52.308Z,10.73
2018-06-08T22:17:20.650Z,10.83
2018-06-08T22:19:49.051Z,11.70
2018-06-08T22:22:17.429Z,12.70
2018-06-08T22:24:45.877Z,12.57
2018-06-08T22:27:15.331Z,11.30
2018-06-08T22:29:43.678Z,12.43
2018-06-08T22:32:12.043Z,11.50
2018-06-08T22:34:40.389Z,10.47
2018-06-08T22:37:08.738Z,13.77
2018-06-08T22:39:37.896Z,13.13
2018-06-08T22:42:06.276Z,12.17
2018-06-08T22:44:34.753Z,11.40
2018-06-08T22:47:03.094Z,11.80
2018-06-08T22:49:31.805Z,11.60
2018-06-08T22:52:00.127Z,12.57
2018-06-08T22:54:28.539Z,12.00
2018-06-08T22:56:56.914Z,11.77
2018-06-08T22:59:25.262Z,11.37
2018-06-08T23:01:53.551Z,12.20
2018-06-08T23:04:21.956Z,11.00
2018-06-08T23:06:50.259Z,10.97
2018-06-08T23:09:18.605Z,11.37
2018-06-08T23:11:46.976Z,12.83
2018-06-08T23:14:15.285Z,12.27
2018-06-08T23:16:43.651Z,14.93
2018-06-08T23:19:11.959Z,15.80
2018-06-08T23:21:41.346Z,12.43
2018-06-08T23:24:09.635Z,14.20
2018-06-08T23:26:38.076Z,14.80
2018-06-08T23:29:08.327Z,12.77
2018-06-08T23:31:39.230Z,13.50
2018-06-08T23:34:08.404Z,13.27
2018-06-08T23:36:40.864Z,13.63
2018-06-08T23:39:12.494Z,13.00
2018-06-08T23:41:43.664Z,12.73
2018-06-08T23:44:12.564Z,13.43
2018-06-08T23:46:41.310Z,15.00
2018-06-08T23:49:10.817Z,15.13
2018-06-08T23:51:39.262Z,13.43
2018-06-08T23:54:07.582Z,13.33
2018-06-08T23:56:36.001Z,15.37
2018-06-08T23:59:04.478Z,12.63
